createdAt,value
2018-12-26T00:00:59.533Z,7.30
2018-12-26T00:01:59.523Z,5.00
2018-12-26T00:02:59.514Z,5.60
2018-12-26T00:03:59.507Z,4.50
2018-12-26T00:04:59.498Z,8.50
2018-12-26T00:05:59.491Z,5.40
2018-12-26T00:06:59.483Z,7.50
2018-12-26T00:07:59.481Z,6.90
2018-12-26T00:08:59.465Z,5.60
2018-12-26T00:09:59.456Z,4.70
2018-12-26T00:10:59.452Z,8.40
2018-12-26T00:11:59.443Z,7.70
2018-12-26T00:12:59.432Z,7.00
2018-12-26T00:13:59.425Z,7.40
2018-12-26T00:14:59.419Z,6.50
2018-12-26T00:15:59.412Z,7.40
2018-12-26T00:16:59.402Z,7.30
2018-12-26T00:17:59.393Z,4.90
2018-12-26T00:18:59.384Z,4.30
2018-12-26T00:19:59.478Z,9.80
2018-12-26T00:20:59.370Z,7.50
2018-12-26T00:21:59.359Z,9.60
2018-12-26T00:22:59.407Z,8.80
2018-12-26T00:23:59.469Z,7.60
2018-12-26T00:24:59.338Z,7.30
2018-12-26T00:26:01.834Z,9.60
2018-12-26T00:26:59.320Z,8.50
2018-12-26T00:27:59.314Z,6.20
2018-12-26T00:28:59.305Z,6.50
2018-12-26T00:29:59.295Z,6.00
2018-12-26T00:30:59.288Z,6.80
2018-12-26T00:31:59.280Z,10.10
2018-12-26T00:32:59.274Z,7.30
2018-12-26T00:33:59.265Z,8.30
2018-12-26T00:34:59.267Z,5.50
2018-12-26T00:35:59.248Z,6.20
2018-12-26T00:36:59.242Z,5.20
2018-12-26T00:37:59.235Z,10.30
2018-12-26T00:38:59.223Z,6.50
2018-12-26T00:39:59.216Z,5.60
2018-12-26T00:40:59.206Z,6.80
2018-12-26T00:41:59.200Z,7.30
2018-12-26T00:42:59.196Z,9.20
2018-12-26T00:43:59.201Z,6.60
2018-12-26T00:44:59.182Z,4.90
2018-12-26T00:45:59.164Z,7.30
2018-12-26T00:46:59.182Z,7.80
2018-12-26T00:47:59.155Z,7.80
2018-12-26T00:48:59.145Z,6.80
2018-12-26T00:49:59.230Z,9.80
2018-12-26T00:50:59.127Z,6.10
2018-12-26T00:51:59.119Z,6.20
2018-12-26T00:52:59.112Z,5.70
2018-12-26T00:53:59.102Z,18.60
2018-12-26T00:54:59.094Z,6.40
2018-12-26T00:55:59.087Z,9.30
2018-12-26T00:56:59.081Z,8.10
2018-12-26T00:57:59.070Z,7.20
2018-12-26T00:58:59.063Z,8.60
2018-12-26T00:59:59.152Z,11.30
2018-12-26T01:00:59.045Z,9.20
2018-12-26T01:01:59.040Z,8.90
2018-12-26T01:02:59.068Z,9.80
2018-12-26T01:03:59.046Z,5.90
2018-12-26T01:04:59.011Z,6.50
2018-12-26T01:05:59.004Z,9.70
2018-12-26T01:06:59.034Z,8.50
2018-12-26T01:07:58.990Z,11.90
2018-12-26T01:08:58.980Z,8.70
2018-12-26T01:09:58.973Z,6.60
2018-12-26T01:10:58.963Z,8.20
2018-12-26T01:11:58.957Z,8.30
2018-12-26T01:12:58.947Z,6.50
2018-12-26T01:13:58.940Z,6.70
2018-12-26T01:14:58.930Z,7.00
2018-12-26T01:15:58.923Z,6.80
2018-12-26T01:16:58.915Z,7.30
2018-12-26T01:17:58.906Z,9.50
2018-12-26T01:18:58.895Z,9.60
2018-12-26T01:19:58.890Z,7.30
2018-12-26T01:20:58.887Z,7.10
2018-12-26T01:21:58.872Z,9.20
2018-12-26T01:22:58.866Z,7.70
2018-12-26T01:23:58.856Z,10.00
2018-12-26T01:24:58.850Z,7.50
2018-12-26T01:25:58.852Z,6.80
2018-12-26T01:26:58.832Z,8.40
2018-12-26T01:27:58.828Z,6.30
2018-12-26T01:28:58.813Z,8.80
2018-12-26T01:29:58.818Z,6.20
2018-12-26T01:30:58.808Z,6.80
2018-12-26T01:31:58.796Z,11.20
2018-12-26T01:32:58.788Z,6.60
2018-12-26T01:33:58.774Z,9.00
2018-12-26T01:34:58.768Z,8.40
2018-12-26T01:35:58.759Z,6.00
2018-12-26T01:36:58.752Z,6.80
2018-12-26T01:37:58.744Z,7.10
2018-12-26T01:38:58.734Z,9.00
2018-12-26T01:39:58.729Z,7.20
2018-12-26T01:40:58.718Z,9.60
2018-12-26T01:41:58.711Z,8.50
2018-12-26T01:42:58.700Z,7.40
2018-12-26T01:43:58.693Z,7.00
2018-12-26T01:44:58.685Z,9.00
2018-12-26T01:45:58.681Z,10.40
2018-12-26T01:46:58.688Z,7.30
2018-12-26T01:47:58.661Z,10.10
2018-12-26T01:48:58.652Z,8.50
2018-12-26T01:49:58.644Z,8.70
2018-12-26T01:50:58.636Z,9.30
2018-12-26T01:51:58.629Z,12.00
2018-12-26T01:52:58.621Z,8.50
2018-12-26T01:53:58.613Z,11.60
2018-12-26T01:54:58.603Z,10.30
2018-12-26T01:55:58.596Z,9.70
2018-12-26T01:56:58.589Z,8.30
2018-12-26T01:57:58.580Z,8.10
2018-12-26T01:58:58.652Z,8.30
2018-12-26T01:59:58.564Z,7.90
2018-12-26T02:00:58.556Z,8.10
2018-12-26T02:01:58.551Z,7.80
2018-12-26T02:02:58.541Z,8.10
2018-12-26T02:03:58.534Z,9.20
2018-12-26T02:04:58.537Z,7.80
2018-12-26T02:05:58.514Z,7.70
2018-12-26T02:06:58.507Z,9.10
2018-12-26T02:07:58.496Z,9.40
2018-12-26T02:08:58.490Z,8.70
2018-12-26T02:09:58.567Z,10.20
2018-12-26T02:10:58.472Z,10.20
2018-12-26T02:11:58.467Z,9.50
2018-12-26T02:12:58.456Z,12.80
2018-12-26T02:13:58.447Z,12.50
2018-12-26T02:14:58.443Z,10.50
2018-12-26T02:15:58.432Z,7.90
2018-12-26T02:16:58.421Z,9.50
2018-12-26T02:17:58.417Z,10.00
2018-12-26T02:18:58.407Z,11.40
2018-12-26T02:19:58.396Z,8.90
2018-12-26T02:20:58.388Z,10.40
2018-12-26T02:21:58.381Z,8.00
2018-12-26T02:22:58.374Z,10.90
2018-12-26T02:23:58.367Z,9.30
2018-12-26T02:24:58.355Z,9.10
2018-12-26T02:25:58.346Z,8.00
2018-12-26T02:26:58.337Z,9.40
2018-12-26T02:27:58.334Z,13.10
2018-12-26T02:28:58.323Z,11.90
2018-12-26T02:29:58.315Z,11.60
2018-12-26T02:30:58.306Z,10.50
2018-12-26T02:31:58.301Z,10.50
2018-12-26T02:32:58.291Z,9.60
2018-12-26T02:33:58.282Z,10.80
2018-12-26T02:34:58.273Z,9.30
2018-12-26T02:35:58.268Z,9.10
2018-12-26T02:36:58.260Z,11.60
2018-12-26T02:37:58.249Z,13.30
2018-12-26T02:38:58.238Z,9.10
2018-12-26T02:39:58.231Z,11.00
2018-12-26T02:40:58.224Z,9.10
2018-12-26T02:41:58.215Z,10.80
2018-12-26T02:42:58.217Z,9.90
2018-12-26T02:43:58.199Z,11.50
2018-12-26T02:44:58.192Z,8.70
2018-12-26T02:45:58.183Z,9.80
2018-12-26T02:46:58.301Z,12.80
2018-12-26T02:47:58.169Z,9.80
2018-12-26T02:48:58.158Z,9.70
2018-12-26T02:49:58.159Z,9.50
2018-12-26T02:50:58.140Z,9.70
2018-12-26T02:51:58.138Z,9.40
2018-12-26T02:52:58.126Z,12.40
2018-12-26T02:53:58.116Z,13.10
2018-12-26T02:54:58.108Z,9.80
2018-12-26T02:55:58.104Z,9.70
2018-12-26T02:56:58.098Z,10.70
2018-12-26T02:57:58.084Z,9.60
2018-12-26T02:58:58.073Z,9.70
2018-12-26T02:59:58.067Z,9.00
2018-12-26T03:00:58.059Z,12.40
2018-12-26T03:01:58.049Z,9.80
2018-12-26T03:02:58.044Z,8.80
2018-12-26T03:03:58.035Z,8.60
2018-12-26T03:04:58.024Z,12.00
2018-12-26T03:05:58.014Z,9.80
2018-12-26T03:06:58.006Z,9.20
2018-12-26T03:07:57.999Z,11.00
2018-12-26T03:08:57.990Z,10.70
2018-12-26T03:09:57.982Z,9.70
2018-12-26T03:10:57.972Z,10.80
2018-12-26T03:11:57.966Z,9.20
2018-12-26T03:12:57.959Z,11.80
2018-12-26T03:13:57.987Z,11.20
2018-12-26T03:14:57.940Z,11.70
2018-12-26T03:15:57.933Z,10.30
2018-12-26T03:16:57.923Z,13.00
2018-12-26T03:17:57.914Z,9.50
2018-12-26T03:18:57.905Z,9.60
2018-12-26T03:19:57.899Z,13.00
2018-12-26T03:20:57.891Z,8.50
2018-12-26T03:21:57.884Z,9.70
2018-12-26T03:22:57.872Z,11.10
2018-12-26T03:23:57.867Z,10.10
2018-12-26T03:24:57.856Z,11.80
2018-12-26T03:25:57.852Z,9.00
2018-12-26T03:26:57.838Z,12.20
2018-12-26T03:27:57.830Z,10.90
2018-12-26T03:28:57.824Z,13.80
2018-12-26T03:29:57.814Z,12.30
2018-12-26T03:30:57.807Z,11.10
2018-12-26T03:31:57.799Z,11.50
2018-12-26T03:32:57.793Z,12.10
2018-12-26T03:33:57.782Z,11.00
2018-12-26T03:34:57.774Z,14.10
2018-12-26T03:35:57.764Z,10.30
2018-12-26T03:36:57.754Z,10.60
2018-12-26T03:37:57.748Z,10.60
2018-12-26T03:38:57.739Z,12.70
2018-12-26T03:39:57.732Z,10.20
2018-12-26T03:40:57.727Z,11.90
2018-12-26T03:41:57.710Z,10.20
2018-12-26T03:42:57.708Z,10.80
2018-12-26T03:43:57.698Z,10.90
2018-12-26T03:44:57.689Z,11.50
2018-12-26T03:45:57.681Z,10.20
2018-12-26T03:46:57.672Z,12.90
2018-12-26T03:47:57.667Z,11.30
2018-12-26T03:48:57.655Z,10.60
2018-12-26T03:49:57.646Z,10.30
2018-12-26T03:50:57.637Z,10.30
2018-12-26T03:51:57.631Z,10.00
2018-12-26T03:52:57.622Z,12.70
2018-12-26T03:53:57.615Z,11.40
2018-12-26T03:54:57.607Z,11.80
2018-12-26T03:55:57.597Z,9.80
2018-12-26T03:57:05.869Z,11.20
2018-12-26T03:57:57.581Z,11.40
2018-12-26T03:58:57.574Z,11.20
2018-12-26T03:59:57.565Z,10.40
2018-12-26T04:00:57.560Z,8.60
2018-12-26T04:01:57.547Z,10.40
2018-12-26T04:02:57.543Z,9.70
2018-12-26T04:03:57.532Z,8.60
2018-12-26T04:04:57.520Z,10.60
2018-12-26T04:05:57.517Z,9.70
2018-12-26T04:06:57.509Z,10.80
2018-12-26T04:07:57.497Z,9.90
2018-12-26T04:08:57.491Z,9.20
2018-12-26T04:09:57.481Z,11.60
2018-12-26T04:10:57.472Z,9.30
2018-12-26T04:11:57.466Z,10.70
2018-12-26T04:12:57.456Z,9.00
2018-12-26T04:13:57.446Z,9.50
2018-12-26T04:14:57.438Z,11.30
2018-12-26T04:15:57.431Z,9.20
2018-12-26T04:16:57.423Z,11.00
2018-12-26T04:17:57.414Z,10.50
2018-12-26T04:18:57.405Z,10.40
2018-12-26T04:19:57.396Z,9.20
2018-12-26T04:20:57.392Z,11.00
2018-12-26T04:21:57.381Z,10.70
2018-12-26T04:22:57.380Z,9.00
2018-12-26T04:23:57.363Z,8.90
2018-12-26T04:24:57.354Z,9.70
2018-12-26T04:25:57.352Z,9.30
2018-12-26T04:26:57.344Z,12.90
2018-12-26T04:27:57.332Z,10.00
2018-12-26T04:28:57.321Z,11.90
2018-12-26T04:29:57.313Z,10.00
2018-12-26T04:30:57.308Z,8.00
2018-12-26T04:31:57.295Z,8.60
2018-12-26T04:32:57.286Z,8.80
2018-12-26T04:33:57.277Z,9.00
2018-12-26T04:34:57.267Z,7.40
2018-12-26T04:35:57.278Z,9.20
2018-12-26T04:36:57.255Z,10.30
2018-12-26T04:37:57.245Z,8.20
2018-12-26T04:38:57.235Z,9.00
2018-12-26T04:39:57.227Z,9.30
2018-12-26T04:40:57.222Z,8.60
2018-12-26T04:41:57.211Z,9.30
2018-12-26T04:42:57.205Z,8.60
2018-12-26T04:43:57.196Z,7.60
2018-12-26T04:44:57.184Z,7.80
2018-12-26T04:45:57.178Z,8.40
2018-12-26T04:46:57.168Z,10.60
2018-12-26T04:47:57.158Z,8.50
2018-12-26T04:48:57.154Z,8.40
2018-12-26T04:49:57.147Z,8.60
2018-12-26T04:50:57.136Z,9.90
2018-12-26T04:51:57.122Z,11.60
2018-12-26T04:52:57.129Z,8.40
2018-12-26T04:53:57.118Z,10.40
2018-12-26T04:54:57.098Z,9.90
2018-12-26T04:55:57.091Z,9.10
2018-12-26T04:56:57.095Z,9.70
2018-12-26T04:57:57.074Z,7.80
2018-12-26T04:58:57.065Z,8.40
2018-12-26T04:59:57.058Z,7.80
2018-12-26T05:00:57.048Z,8.90
2018-12-26T05:01:57.041Z,9.80
2018-12-26T05:02:57.033Z,7.20
2018-12-26T05:03:57.025Z,8.30
2018-12-26T05:04:57.015Z,8.70
2018-12-26T05:05:57.006Z,6.80
2018-12-26T05:06:56.998Z,10.20
2018-12-26T05:07:56.990Z,6.80
2018-12-26T05:08:56.983Z,6.60
2018-12-26T05:09:56.974Z,8.30
2018-12-26T05:10:56.965Z,7.40
2018-12-26T05:11:56.955Z,7.10
2018-12-26T05:12:56.955Z,7.70
2018-12-26T05:13:56.939Z,8.70
2018-12-26T05:14:56.933Z,6.40
2018-12-26T05:15:56.920Z,8.40
2018-12-26T05:16:56.912Z,8.20
2018-12-26T05:17:56.905Z,7.00
2018-12-26T05:18:56.897Z,7.80
2018-12-26T05:19:56.884Z,8.20
2018-12-26T05:20:56.878Z,6.60
2018-12-26T05:21:56.867Z,7.10
2018-12-26T05:22:56.860Z,7.70
2018-12-26T05:23:56.853Z,6.30
2018-12-26T05:24:56.843Z,7.90
2018-12-26T05:25:56.834Z,7.50
2018-12-26T05:26:56.825Z,8.90
2018-12-26T05:27:56.817Z,6.40
2018-12-26T05:28:56.813Z,8.60
2018-12-26T05:29:56.799Z,6.70
2018-12-26T05:30:56.793Z,7.40
2018-12-26T05:31:56.783Z,7.70
2018-12-26T05:32:56.777Z,9.50
2018-12-26T05:33:56.767Z,6.70
2018-12-26T05:34:56.758Z,10.10
2018-12-26T05:35:56.748Z,7.70
2018-12-26T05:36:56.741Z,6.80
2018-12-26T05:37:56.733Z,10.10
2018-12-26T05:38:56.724Z,12.00
2018-12-26T05:39:56.714Z,8.80
2018-12-26T05:40:56.706Z,8.10
2018-12-26T05:41:56.698Z,8.40
2018-12-26T05:42:56.687Z,9.10
2018-12-26T05:43:56.682Z,10.50
2018-12-26T05:44:56.673Z,9.80
2018-12-26T05:45:56.661Z,9.20
2018-12-26T05:46:56.651Z,9.40
2018-12-26T05:47:56.645Z,7.60
2018-12-26T05:48:56.639Z,8.80
2018-12-26T05:49:56.723Z,10.20
2018-12-26T05:50:56.621Z,9.00
2018-12-26T05:51:56.610Z,8.70
2018-12-26T05:52:56.611Z,12.40
2018-12-26T05:53:56.592Z,7.40
2018-12-26T05:54:56.581Z,9.60
2018-12-26T05:55:56.581Z,9.30
2018-12-26T05:56:56.585Z,11.60
2018-12-26T05:57:56.558Z,10.20
2018-12-26T05:58:56.552Z,8.00
2018-12-26T05:59:56.543Z,9.40
2018-12-26T06:00:56.536Z,8.00
2018-12-26T06:01:56.525Z,8.60
2018-12-26T06:02:56.521Z,8.40
2018-12-26T06:03:56.510Z,9.20
2018-12-26T06:04:56.499Z,8.80
2018-12-26T06:05:56.490Z,9.30
2018-12-26T06:06:56.486Z,7.70
2018-12-26T06:07:56.476Z,9.00
2018-12-26T06:08:56.467Z,7.80
2018-12-26T06:09:56.455Z,8.10
2018-12-26T06:10:56.453Z,8.30
2018-12-26T06:11:56.440Z,9.00
2018-12-26T06:12:56.430Z,7.80
2018-12-26T06:13:56.422Z,7.10
2018-12-26T06:14:56.417Z,9.60
2018-12-26T06:15:56.406Z,12.10
2018-12-26T06:16:56.395Z,8.20
2018-12-26T06:17:56.385Z,10.20
2018-12-26T06:18:56.383Z,5.70
2018-12-26T06:19:56.373Z,6.50
2018-12-26T06:20:56.361Z,6.70
2018-12-26T06:21:56.354Z,7.40
2018-12-26T06:22:56.343Z,7.60
2018-12-26T06:23:56.333Z,6.00
2018-12-26T06:24:56.330Z,5.90
2018-12-26T06:25:56.319Z,6.00
2018-12-26T06:26:56.311Z,6.90
2018-12-26T06:27:56.304Z,6.10
2018-12-26T06:28:56.298Z,5.50
2018-12-26T06:29:56.284Z,6.00
2018-12-26T06:30:56.277Z,7.70
2018-12-26T06:31:56.273Z,5.20
2018-12-26T06:32:56.259Z,5.30
2018-12-26T06:33:56.251Z,6.20
2018-12-26T06:34:56.241Z,8.60
2018-12-26T06:35:56.235Z,7.00
2018-12-26T06:36:56.226Z,5.60
2018-12-26T06:37:56.215Z,5.50
2018-12-26T06:38:56.206Z,6.60
2018-12-26T06:39:56.198Z,5.50
2018-12-26T06:40:56.191Z,7.20
2018-12-26T06:41:56.187Z,5.30
2018-12-26T06:42:56.174Z,6.20
2018-12-26T06:43:56.164Z,7.20
2018-12-26T06:44:56.157Z,6.40
2018-12-26T06:45:56.150Z,6.50
2018-12-26T06:46:56.139Z,5.60
2018-12-26T06:47:56.130Z,7.00
2018-12-26T06:48:56.121Z,6.70
2018-12-26T06:49:56.114Z,4.80
2018-12-26T06:50:56.104Z,4.70
2018-12-26T06:51:56.094Z,6.70
2018-12-26T06:52:56.085Z,6.00
2018-12-26T06:53:56.078Z,6.00
2018-12-26T06:54:56.067Z,6.40
2018-12-26T06:55:56.058Z,6.00
2018-12-26T06:56:56.054Z,6.40
2018-12-26T06:57:59.996Z,6.60
2018-12-26T06:58:56.034Z,6.60
2018-12-26T06:59:56.024Z,7.80
2018-12-26T07:00:56.014Z,5.50
2018-12-26T07:01:56.007Z,9.00
2018-12-26T07:02:56.000Z,6.70
2018-12-26T07:03:55.984Z,8.50
2018-12-26T07:04:55.981Z,5.90
2018-12-26T07:05:55.971Z,5.30
2018-12-26T07:06:55.963Z,6.60
2018-12-26T07:07:55.955Z,5.80
2018-12-26T07:08:55.946Z,5.30
2018-12-26T07:09:55.938Z,9.10
2018-12-26T07:10:55.924Z,6.50
2018-12-26T07:11:55.923Z,5.80
2018-12-26T07:12:55.908Z,6.60
2018-12-26T07:13:55.900Z,8.80
2018-12-26T07:14:55.892Z,6.30
2018-12-26T07:15:55.884Z,6.50
2018-12-26T07:16:55.876Z,11.40
2018-12-26T07:17:55.867Z,6.30
2018-12-26T07:18:55.864Z,7.40
2018-12-26T07:19:55.852Z,7.00
2018-12-26T07:20:55.842Z,7.40
2018-12-26T07:21:55.831Z,8.90
2018-12-26T07:22:55.819Z,6.60
2018-12-26T07:23:55.813Z,8.70
2018-12-26T07:24:55.807Z,8.80
2018-12-26T07:25:55.796Z,7.20
2018-12-26T07:26:55.787Z,6.20
2018-12-26T07:27:55.780Z,9.00
2018-12-26T07:28:55.777Z,9.20
2018-12-26T07:29:55.761Z,7.10
2018-12-26T07:30:55.752Z,6.90
2018-12-26T07:31:55.745Z,7.80
2018-12-26T07:32:55.736Z,7.50
2018-12-26T07:33:55.725Z,9.90
2018-12-26T07:34:55.721Z,7.90
2018-12-26T07:35:55.716Z,7.60
2018-12-26T07:36:55.703Z,10.80
2018-12-26T07:37:55.693Z,7.50
2018-12-26T07:38:55.682Z,7.10
2018-12-26T07:39:55.675Z,11.60
2018-12-26T07:40:55.666Z,10.50
2018-12-26T07:41:55.658Z,10.10
2018-12-26T07:42:55.650Z,10.80
2018-12-26T07:43:55.642Z,9.40
2018-12-26T07:44:55.634Z,11.00
2018-12-26T07:45:55.622Z,8.50
2018-12-26T07:46:55.617Z,12.00
2018-12-26T07:47:55.608Z,11.90
2018-12-26T07:48:55.598Z,10.00
2018-12-26T07:49:55.592Z,9.70
2018-12-26T07:50:55.580Z,9.60
2018-12-26T07:51:55.572Z,10.00
2018-12-26T07:52:55.564Z,12.50
2018-12-26T07:53:55.553Z,14.90
2018-12-26T07:54:55.545Z,11.00
2018-12-26T07:55:55.539Z,12.20
2018-12-26T07:56:55.539Z,12.20
2018-12-26T07:57:55.522Z,10.80
2018-12-26T07:58:55.513Z,10.70
2018-12-26T07:59:55.499Z,12.10
2018-12-26T08:00:55.497Z,11.50
2018-12-26T08:01:55.484Z,11.70
2018-12-26T08:02:55.476Z,11.40
2018-12-26T08:03:55.467Z,11.20
2018-12-26T08:04:55.462Z,11.10
2018-12-26T08:05:55.451Z,9.80
2018-12-26T08:06:55.442Z,10.50
2018-12-26T08:07:55.433Z,11.80
2018-12-26T08:08:55.423Z,11.60
2018-12-26T08:09:55.414Z,11.70
2018-12-26T08:10:55.425Z,10.60
2018-12-26T08:11:55.425Z,8.10
2018-12-26T08:12:55.389Z,9.20
2018-12-26T08:13:55.383Z,10.70
2018-12-26T08:14:55.374Z,9.50
2018-12-26T08:15:55.362Z,9.80
2018-12-26T08:16:55.355Z,10.30
2018-12-26T08:17:55.340Z,8.30
2018-12-26T08:18:55.335Z,8.50
2018-12-26T08:19:55.323Z,10.20
2018-12-26T08:20:55.318Z,9.40
2018-12-26T08:21:55.306Z,8.90
2018-12-26T08:22:55.298Z,10.80
2018-12-26T08:23:55.291Z,10.30
2018-12-26T08:24:55.281Z,7.90
2018-12-26T08:25:55.267Z,9.90
2018-12-26T08:26:55.269Z,7.80
2018-12-26T08:27:55.254Z,12.10
2018-12-26T08:28:55.247Z,8.40
2018-12-26T08:29:55.236Z,9.80
2018-12-26T08:30:55.231Z,9.40
2018-12-26T08:31:55.219Z,8.20
2018-12-26T08:32:55.208Z,9.80
2018-12-26T08:33:55.201Z,11.30
2018-12-26T08:34:55.192Z,8.80
2018-12-26T08:35:55.183Z,9.40
2018-12-26T08:36:55.174Z,11.40
2018-12-26T08:37:55.163Z,10.10
2018-12-26T08:38:55.155Z,8.70
2018-12-26T08:39:55.152Z,10.20
2018-12-26T08:40:55.139Z,11.70
2018-12-26T08:41:55.133Z,10.10
2018-12-26T08:42:55.121Z,11.30
2018-12-26T08:43:55.111Z,11.20
2018-12-26T08:44:55.103Z,15.20
2018-12-26T08:45:55.106Z,10.50
2018-12-26T08:46:55.084Z,12.00
2018-12-26T08:47:55.117Z,11.30
2018-12-26T08:48:55.069Z,9.00
2018-12-26T08:49:55.059Z,9.00
2018-12-26T08:50:55.050Z,9.00
2018-12-26T08:51:55.040Z,10.30
2018-12-26T08:52:55.038Z,9.50
2018-12-26T08:53:55.023Z,9.20
2018-12-26T08:54:55.017Z,9.60
2018-12-26T08:55:55.003Z,10.80
2018-12-26T08:56:54.997Z,10.80
2018-12-26T08:57:54.989Z,13.60
2018-12-26T08:58:54.978Z,13.00
2018-12-26T08:59:54.968Z,14.30
2018-12-26T09:00:54.959Z,11.60
2018-12-26T09:01:54.952Z,10.90
2018-12-26T09:02:54.943Z,11.20
2018-12-26T09:03:54.933Z,13.50
2018-12-26T09:04:54.929Z,11.00
2018-12-26T09:05:54.917Z,13.10
2018-12-26T09:06:54.909Z,13.70
2018-12-26T09:07:54.898Z,12.00
2018-12-26T09:08:54.890Z,13.50
2018-12-26T09:09:54.879Z,12.60
2018-12-26T09:10:54.869Z,11.90
2018-12-26T09:11:54.863Z,13.70
2018-12-26T09:12:54.855Z,13.30
2018-12-26T09:13:54.846Z,12.00
2018-12-26T09:14:54.840Z,16.00
2018-12-26T09:15:54.832Z,13.60
2018-12-26T09:16:54.819Z,14.20
2018-12-26T09:17:54.811Z,12.30
2018-12-26T09:18:54.800Z,12.50
2018-12-26T09:19:54.792Z,12.50
2018-12-26T09:20:54.783Z,15.50
2018-12-26T09:21:54.770Z,12.50
2018-12-26T09:22:54.764Z,10.70
2018-12-26T09:23:54.842Z,11.20
2018-12-26T09:24:54.749Z,10.30
2018-12-26T09:25:54.735Z,11.60
2018-12-26T09:26:54.724Z,13.60
2018-12-26T09:27:54.718Z,14.60
2018-12-26T09:28:54.719Z,13.90
2018-12-26T09:29:54.718Z,11.70
2018-12-26T09:30:54.702Z,17.00
2018-12-26T09:31:54.685Z,11.40
2018-12-26T09:32:54.676Z,13.40
2018-12-26T09:33:54.667Z,11.30
2018-12-26T09:34:54.658Z,10.80
2018-12-26T09:35:54.649Z,11.70
2018-12-26T09:36:54.643Z,12.00
2018-12-26T09:37:54.631Z,13.00
2018-12-26T09:38:54.623Z,13.90
2018-12-26T09:39:54.614Z,11.50
2018-12-26T09:40:54.608Z,12.80
2018-12-26T09:41:54.603Z,10.00
2018-12-26T09:42:54.588Z,13.00
2018-12-26T09:43:54.580Z,14.00
2018-12-26T09:44:54.836Z,14.30
2018-12-26T09:45:54.560Z,14.20
2018-12-26T09:46:54.554Z,11.40
2018-12-26T09:47:54.546Z,14.30
2018-12-26T09:48:54.539Z,14.70
2018-12-26T09:49:54.599Z,11.20
2018-12-26T09:50:54.537Z,15.40
2018-12-26T09:51:54.514Z,11.70
2018-12-26T09:52:54.507Z,19.20
2018-12-26T09:53:54.488Z,15.20
2018-12-26T09:54:54.483Z,16.70
2018-12-26T09:55:54.486Z,13.20
2018-12-26T09:56:54.465Z,13.90
2018-12-26T09:57:54.455Z,14.60
2018-12-26T09:58:54.448Z,18.20
2018-12-26T09:59:54.445Z,19.10
2018-12-26T10:00:54.431Z,17.30
2018-12-26T10:01:54.496Z,14.30
2018-12-26T10:02:54.412Z,15.90
2018-12-26T10:03:54.406Z,17.00
2018-12-26T10:04:54.397Z,16.20
2018-12-26T10:05:54.386Z,16.30
2018-12-26T10:06:54.384Z,23.30
2018-12-26T10:07:54.372Z,20.50
2018-12-26T10:08:54.362Z,16.40
2018-12-26T10:09:54.352Z,13.20
2018-12-26T10:10:54.346Z,18.30
2018-12-26T10:11:54.339Z,15.70
2018-12-26T10:12:54.326Z,16.80
2018-12-26T10:13:54.317Z,15.70
2018-12-26T10:14:54.309Z,18.30
2018-12-26T10:15:54.303Z,17.50
2018-12-26T10:16:54.295Z,15.60
2018-12-26T10:17:54.284Z,16.70
2018-12-26T10:18:54.277Z,16.60
2018-12-26T10:19:54.268Z,19.70
2018-12-26T10:20:54.259Z,19.60
2018-12-26T10:21:54.250Z,20.60
2018-12-26T10:22:54.241Z,20.00
2018-12-26T10:23:54.233Z,18.50
2018-12-26T10:24:54.225Z,18.10
2018-12-26T10:25:54.216Z,15.80
2018-12-26T10:26:54.216Z,14.40
2018-12-26T10:27:54.205Z,15.70
2018-12-26T10:29:00.956Z,14.30
2018-12-26T10:29:54.185Z,16.50
2018-12-26T10:30:54.174Z,15.60
2018-12-26T10:31:54.165Z,18.20
2018-12-26T10:32:54.158Z,17.30
2018-12-26T10:33:54.186Z,18.10
2018-12-26T10:34:54.144Z,17.10
2018-12-26T10:35:54.134Z,18.30
2018-12-26T10:36:54.123Z,17.70
2018-12-26T10:37:54.116Z,16.60
2018-12-26T10:38:54.108Z,17.50
2018-12-26T10:39:54.102Z,21.30
2018-12-26T10:40:54.096Z,16.50
2018-12-26T10:41:54.084Z,17.00
2018-12-26T10:42:54.076Z,17.70
2018-12-26T10:43:54.070Z,16.60
2018-12-26T10:44:54.060Z,17.10
2018-12-26T10:45:54.054Z,17.90
2018-12-26T10:46:54.041Z,14.10
2018-12-26T10:47:54.035Z,14.00
2018-12-26T10:48:54.025Z,15.80
2018-12-26T10:49:54.019Z,16.40
2018-12-26T10:50:54.018Z,15.80
2018-12-26T10:51:54.001Z,15.70
2018-12-26T10:52:53.994Z,14.70
2018-12-26T10:53:53.985Z,14.60
2018-12-26T10:54:53.977Z,16.40
2018-12-26T10:55:53.969Z,12.80
2018-12-26T10:56:53.961Z,13.70
2018-12-26T10:57:53.947Z,14.70
2018-12-26T10:58:53.945Z,13.10
2018-12-26T10:59:53.980Z,14.90
2018-12-26T11:00:53.930Z,15.50
2018-12-26T11:01:53.921Z,14.50
2018-12-26T11:02:53.908Z,13.40
2018-12-26T11:03:53.905Z,13.20
2018-12-26T11:04:53.896Z,15.00
2018-12-26T11:05:53.890Z,12.00
2018-12-26T11:06:53.880Z,14.00
2018-12-26T11:07:53.872Z,15.50
2018-12-26T11:08:53.866Z,14.00
2018-12-26T11:09:53.856Z,10.90
2018-12-26T11:10:53.854Z,11.40
2018-12-26T11:11:53.840Z,10.30
2018-12-26T11:12:53.834Z,11.60
2018-12-26T11:13:53.823Z,15.20
2018-12-26T11:14:53.817Z,11.90
2018-12-26T11:15:53.809Z,12.50
2018-12-26T11:16:53.805Z,11.70
2018-12-26T11:17:53.792Z,11.10
2018-12-26T11:18:53.782Z,11.40
2018-12-26T11:19:53.777Z,9.30
2018-12-26T11:20:53.769Z,10.20
2018-12-26T11:21:53.766Z,12.50
2018-12-26T11:22:53.749Z,15.20
2018-12-26T11:23:53.746Z,13.30
2018-12-26T11:24:53.738Z,13.20
2018-12-26T11:25:53.739Z,11.90
2018-12-26T11:26:53.720Z,11.20
2018-12-26T11:27:53.718Z,12.50
2018-12-26T11:28:53.713Z,13.30
2018-12-26T11:29:53.697Z,10.70
2018-12-26T11:30:53.687Z,9.00
2018-12-26T11:31:53.679Z,9.40
2018-12-26T11:32:53.674Z,9.80
2018-12-26T11:33:53.666Z,8.30
2018-12-26T11:34:53.661Z,10.40
2018-12-26T11:35:53.651Z,10.00
2018-12-26T11:36:53.641Z,8.40
2018-12-26T11:37:53.638Z,11.90
2018-12-26T11:38:53.626Z,13.10
2018-12-26T11:39:53.621Z,12.00
2018-12-26T11:40:53.718Z,8.00
2018-12-26T11:41:53.604Z,11.20
2018-12-26T11:42:53.595Z,13.30
2018-12-26T11:43:53.585Z,10.50
2018-12-26T11:44:53.578Z,9.60
2018-12-26T11:45:53.567Z,8.30
2018-12-26T11:46:53.563Z,8.10
2018-12-26T11:47:53.557Z,8.50
2018-12-26T11:48:53.549Z,8.00
2018-12-26T11:49:53.543Z,7.80
2018-12-26T11:50:53.533Z,8.40
2018-12-26T11:51:53.526Z,10.90
2018-12-26T11:52:53.521Z,11.80
2018-12-26T11:53:53.508Z,12.50
2018-12-26T11:54:53.502Z,10.40
2018-12-26T11:55:53.497Z,8.90
2018-12-26T11:56:53.488Z,8.50
2018-12-26T11:57:53.482Z,8.50
2018-12-26T11:58:53.472Z,11.20
2018-12-26T11:59:53.462Z,10.60
2018-12-26T12:00:53.458Z,9.00
2018-12-26T12:01:53.449Z,11.00
2018-12-26T12:02:53.560Z,10.80
2018-12-26T12:03:53.435Z,10.30
2018-12-26T12:04:53.426Z,13.50
2018-12-26T12:05:53.417Z,11.70
2018-12-26T12:06:53.414Z,12.00
2018-12-26T12:07:53.408Z,9.20
2018-12-26T12:08:53.394Z,9.80
2018-12-26T12:09:53.390Z,11.70
2018-12-26T12:10:53.379Z,9.80
2018-12-26T12:11:53.373Z,11.50
2018-12-26T12:12:53.364Z,10.00
2018-12-26T12:13:53.357Z,9.80
2018-12-26T12:14:53.350Z,11.00
2018-12-26T12:15:53.342Z,10.50
2018-12-26T12:16:53.335Z,10.00
2018-12-26T12:17:53.328Z,11.30
2018-12-26T12:18:53.319Z,10.60
2018-12-26T12:19:53.314Z,8.80
2018-12-26T12:20:53.306Z,9.80
2018-12-26T12:21:53.296Z,11.50
2018-12-26T12:22:53.288Z,10.60
2018-12-26T12:23:53.282Z,11.10
2018-12-26T12:24:53.275Z,12.90
2018-12-26T12:25:53.267Z,13.70
2018-12-26T12:26:53.257Z,13.30
2018-12-26T12:27:53.250Z,12.40
2018-12-26T12:28:53.248Z,14.10
2018-12-26T12:29:53.236Z,15.20
2018-12-26T12:30:53.229Z,13.90
2018-12-26T12:31:53.219Z,13.10
2018-12-26T12:32:53.213Z,13.00
2018-12-26T12:33:53.205Z,12.50
2018-12-26T12:34:53.198Z,11.20
2018-12-26T12:35:53.188Z,11.80
2018-12-26T12:36:53.185Z,14.90
2018-12-26T12:37:53.175Z,13.60
2018-12-26T12:38:53.169Z,11.90
2018-12-26T12:39:53.162Z,13.70
2018-12-26T12:40:53.153Z,11.30
2018-12-26T12:41:53.145Z,13.40
2018-12-26T12:42:53.139Z,10.60
2018-12-26T12:43:53.132Z,12.60
2018-12-26T12:44:53.124Z,12.70
2018-12-26T12:45:53.121Z,10.80
2018-12-26T12:46:53.113Z,11.00
2018-12-26T12:47:53.101Z,12.20
2018-12-26T12:48:53.099Z,11.30
2018-12-26T12:49:53.089Z,11.90
2018-12-26T12:50:53.080Z,12.40
2018-12-26T12:51:53.070Z,13.50
2018-12-26T12:52:53.065Z,14.30
2018-12-26T12:53:53.060Z,11.50
2018-12-26T12:54:53.052Z,11.40
2018-12-26T12:55:53.045Z,10.30
2018-12-26T12:56:53.036Z,10.30
2018-12-26T12:57:53.027Z,11.70
2018-12-26T12:58:53.020Z,12.40
2018-12-26T12:59:53.009Z,13.40
2018-12-26T13:00:53.006Z,12.20
2018-12-26T13:01:53.003Z,10.40
2018-12-26T13:03:00.339Z,13.60
2018-12-26T13:03:52.985Z,11.30
2018-12-26T13:04:52.976Z,10.90
2018-12-26T13:05:52.968Z,14.60